ETEB 250556Z AUTO 17005KT 9999 FEW130 16/15 A2988 RMK AO2 SLP117 60000 T01630150 10164 20156 51007 $ EDMA 250620Z AUTO VRB02KT 9999 OVC085/// 17/16 Q1012 ETIK 250556Z AUTO 00000KT 9999 FEW150 17/15 A2987 RMK AO2 SLP105 T01650152 10177 20152 50005 LSZB 250620Z 31004KT 9999 VCSH FEW006 SCT013 BKN060 17/16 Q1011 NOSIG LIPB 250550Z VRB02KT 9999 SCT120 21/18 Q1011 RMK MON LIB EDVE 250620Z AUTO 22003KT 180V260 9999 // FEW100/// 21/18 Q1009 EDDW 250620Z 18008KT 5000 BR SCT009 19/17 Q1008 TEMPO BKN012 LFMD 250630Z AUTO 36003KT 310V040 CAVOK 24/17 Q1007 NOSIG EDLW 250620Z 17007KT CAVOK 18/16 Q1008 EDDC 250620Z 20004KT 160V230 CAVOK 22/15 Q1010 NOSIG EDDL 250620Z 18007KT CAVOK 19/16 Q1008 NOSIG EDDE 250620Z VRB02KT CAVOK 19/16 Q1010 NOSIG LIRQ 250620Z 30002KT CAVOK 25/17 Q1011 EDDF 250620Z 19004KT 150V220 9999 FEW002 BKN005 18/16 Q1010 BECMG BKN010 EDNY 250620Z 36003KT 9999 FEW010 17/17 Q1011 ETHF 250620Z VRB02KT 9999 SCT004 SCT110 17/16 Q1010 BLU+ LIMJ 250620Z 11018KT 9999 SCT020 SCT030 26/23 Q1008 ETIC 250556Z AUTO 00000KT 9999 FEW120 SCT150 SCT170 18/18 A2985 RMK AO2 SLP094 T01820180 10183 20138 50000 $ LOWG 250620Z VRB01KT 9999 FEW060 22/16 Q1013 NOSIG EDDH 250620Z 17008KT 130V190 9999 FEW014 21/17 Q1009 NOSIG EDDV 250620Z 14005KT 070V190 CAVOK 20/17 Q1009 NOSIG EDQM 250620Z 19004KT 140V220 CAVOK 20/15 Q1012 ETIH 250556Z AUTO 00000KT 9999 CLR 16/14 A2989 RMK AO2 SLP109 T01590137 10176 20148 53006 ETSI 250620Z AUTO 09004KT 9999 // ////// 16/15 Q1012 /// LOWI 250620Z VRB01KT 9999 FEW015 SCT065 17/13 Q1013 NOSIG EDVK 250620Z 15005KT CAVOK 19/16 Q1010 EDHK 250620Z AUTO 13006KT 100V170 9999 // FEW076/// BKN100/// OVC120/// 19/17 Q1009 LOWK 250620Z 33004KT 270V030 9999 FEW060 21/15 Q1014 NOSIG EDDK 250620Z 13005KT 080V170 CAVOK 18/16 Q1009 NOSIG EDDP 250620Z 23005KT 190V260 CAVOK 21/17 Q1009 NOSIG LOWL 250620Z VRB01KT 9999 FEW009 20/17 Q1012 NOSIG LSZA 250620Z 36004KT 9000 VCTS FEW041CB SCT047 BKN090 21/19 Q1010 EDHL 250620Z VRB02KT CAVOK 19/18 Q1009 LIML 250620Z 12008KT 9999 FEW015 SCT045 24/20 Q1009 NOSIG LFML 250630Z AUTO 30010KT CAVOK 24/17 Q1009 NOSIG LFMT 250630Z AUTO 31008KT CAVOK 25/13 Q1010 NOSIG EDLN 250620Z 16004KT 080V200 CAVOK 19/16 Q1008 EDDM 250620Z VRB02KT 9999 FEW040CB 17/15 Q1012 NOSIG EDDG 250620Z 16005KT 100V210 4500 BR FEW004 19/17 Q1008 BECMG 9999 ETSN 250620Z VRB01KT 9999 -RA FEW003 BKN100 16/15 Q1012 RESHRA BLU ETHN 250620Z 19004KT 9999 SCT040 BKN220 18/17 Q1012 BLU+ LFMN 250630Z 33009KT CAVOK 26/15 Q1008 NOSIG EDDN 250620Z 14005KT 9999 FEW030 19/15 Q1012 NOSIG EDMO 250620Z AUTO 17004KT 120V240 9999 // BKN076/// BKN100/// 17/16 Q1012 EDLP 250620Z 16005KT CAVOK 19/15 Q1009 LIPR 250620Z 18005KT CAVOK 28/14 Q1010 EDDR 250620Z 20005KT 180V240 6000 FEW001 BKN005 16/16 Q1011 BECMG BKN010 LOWS 250620Z VRB02KT 9999 FEW030 19/15 Q1013 NOSIG LSGS 250620Z 27004KT 9999 FEW030 BKN070 20/16 Q1011 EDDS 250620Z VRB03KT 9999 FEW001 BKN022 19/17 Q1012 NOSIG LFTH 250630Z AUTO 33005KT CAVOK 26/18 Q1007 BECMG 14010KT LIVT 250555Z 00000KT CAVOK 26/20 Q1010 RMK BKN BKN060 QUK 0 QUL 0 VIS MAR 20 KM VIS MIN 9999 LIMF 250620Z 34004KT 9999 SCT024 BKN050 22/18 Q1010 LIPZ 250620Z 05010KT 9999 FEW014 25/19 Q1010 NOSIG LIPX 250620Z 07009KT 040V100 CAVOK 26/18 Q1009 EDXW 250620Z AUTO 10014KT 9999 // FEW049/// BKN069/// BKN100/// 20/18 Q1007 LOWW 250620Z 21003KT 160V240 9999 FEW015 21/18 Q1012 NOSIG LSZH 250620Z 04003KT 010V080 7000 SCT005 18/17 Q1011 NOSIG

METAR Messwerte

Klicken Sie auf einen Ort, um die 36h-Historie abzurufen

Ort
m ü. NN
Zeit Temperatur Taupunkt Rel.
Luftfeuchte
Luftdruck:
Altimeter
NN
Station
Wind in Beaufort
(Knoten)
Sichtweite
(Meter)
Wolken
(Meter über Grund)
Wettererscheinung
Ansbach
467
So 25.07. 07:56161594 %1012
1012
957
S 2 (5)>= 10000Leicht bewölkt (4000) 
Augsburg
463
So 25.07. 08:20171694 %1012
1012
958
Uml 1 (2)>= 10000Bedeckt (2600) 
Bad Windsheim / Illesheim
325
So 25.07. 07:56171588 %1012
1012
974
Windstill>= 10000Leicht bewölkt (4600) 
Bern/Belp
505
So 25.07. 08:20171694 %1011
1011
952
NW 2 (4)>= 10000Stark bewölkt (1800)
Wolkig (400)
Leicht bewölkt (180)
 
Bozen
241
So 25.07. 07:50211883 %1011
1010
982
Uml 1 (2)>= 10000Wolkig (3700) 
Braunschweig
88
So 25.07. 08:20211883 %1009
1009
999
SW 2 (3)
S - W
>= 10000Leicht bewölkt (3000) 
Bremen
5
So 25.07. 08:20191788 %1008
1008
1007
S 3 (8)5000Wolkig (270)Nebeldunst
Cannes
9
So 25.07. 08:30241765 %1007
1007
1006
N 2 (3)
NW - NO
>= 10000Nicht signifikant 
Dortmund/Wickede
127
So 25.07. 08:20181688 %1008
1008
993
S 3 (7)>= 10000Nicht signifikant 
Dresden-Klotzsche
226
So 25.07. 08:20221565 %1010
1009
983
SSW 2 (4)
SSO - SW
>= 10000Nicht signifikant 
Düsseldorf
44
So 25.07. 08:20191683 %1008
1008
1003
S 3 (7)>= 10000Nicht signifikant 
Erfurt-Bindersleben
323
So 25.07. 08:20191683 %1010
1009
972
Uml 1 (2)>= 10000Nicht signifikant 
Florenz
38
So 25.07. 08:20251761 %1011
1011
1006
WNW 1 (2)>= 10000Nicht signifikant 
Frankfurt
113
So 25.07. 08:20181688 %1010
1010
997
S 2 (4)
SSO - SW
>= 10000Stark bewölkt (150)
Leicht bewölkt (61)
 
Friedrichshafen
424
So 25.07. 08:201717100 %1011
1011
961
N 2 (3)>= 10000Leicht bewölkt (300) 
Fritzlar
181
So 25.07. 08:20171694 %1010
1010
989
Uml 1 (2)>= 10000Wolkig (3400)
Wolkig (120)
 
Genua
3
So 25.07. 08:20262384 %1008
1008
1008
OSO 5 (18)>= 10000Wolkig (910)
Wolkig (610)
 
Grafenwöhr
415
So 25.07. 07:561818100 %1011
1010
962
Windstill>= 10000Wolkig (5200)
Wolkig (4600)
Leicht bewölkt (3700)
 
Graz-Thalerhof
347
So 25.07. 08:20221669 %1013
1012
972
Uml 1 (1)>= 10000Leicht bewölkt (1800) 
Hamburg-Fuhlsbüttel
16
So 25.07. 08:20211778 %1009
1009
1007
S 3 (8)
SO - S
>= 10000Leicht bewölkt (430) 
Hannover
54
So 25.07. 08:20201783 %1009
1009
1003
SO 2 (5)
ONO - S
>= 10000Nicht signifikant 
Hof
568
So 25.07. 08:20201573 %1012
1011
946
S 2 (4)
SO - SW
>= 10000Nicht signifikant 
Hohenfels
442
So 25.07. 07:56161488 %1012
1012
960
Windstill>= 10000  
Ingolstadt
370
So 25.07. 08:20161594 %1012
1012
968
O 2 (4)>= 10000  
Innsbruck
581
So 25.07. 08:20171377 %1013
1013
945
Uml 1 (1)>= 10000Wolkig (2000)
Leicht bewölkt (460)
 
Kassel/Calden
285
So 25.07. 08:20191683 %1010
1010
976
SSO 2 (5)>= 10000Nicht signifikant 
Kiel
31
So 25.07. 08:20191788 %1009
1009
1005
SO 2 (6)
O - S
>= 10000Bedeckt (3700)
Stark bewölkt (3000)
Leicht bewölkt (2300)
 
Klagenfurt
441
So 25.07. 08:20211569 %1014
1013
962
NNW 2 (4)
W - NNO
>= 10000Leicht bewölkt (1800) 
Köln/Bonn
99
So 25.07. 08:20181688 %1009
1009
997
SO 2 (5)
O - S
>= 10000Nicht signifikant 
Leipzig-Schkeuditz
149
So 25.07. 08:20211778 %1009
1009
991
SW 2 (5)
S - W
>= 10000Nicht signifikant 
Linz/Hörsching
313
So 25.07. 08:20201783 %1012
1011
975
Uml 1 (1)>= 10000Leicht bewölkt (270) 
Lugano
276
So 25.07. 08:20211988 %1010
1009
977
N 2 (4)9000Stark bewölkt (2700)
Wolkig (1400)
Leicht bewölkt Cb (1200)
 
Lübeck-Blankensee
16
So 25.07. 08:20191894 %1009
1009
1007
Uml 1 (2)>= 10000Nicht signifikant 
Mailand
103
So 25.07. 08:20242078 %1009
1009
997
OSO 3 (8)>= 10000Wolkig (1400)
Leicht bewölkt (460)
 
Marseille/Marignane
36
So 25.07. 08:30241765 %1009
1009
1005
WNW 3 (10)>= 10000Nicht signifikant 
Montpellier
6
So 25.07. 08:30251347 %1010
1010
1009
NW 3 (8)>= 10000Nicht signifikant 
Mönchengladbach
38
So 25.07. 08:20191683 %1008
1008
1003
SSO 2 (4)
O - SSW
>= 10000Nicht signifikant 
München
447
So 25.07. 08:20171588 %1012
1012
959
Uml 1 (2)>= 10000Leicht bewölkt Cb (1200) 
Münster/Osnabrück
52
So 25.07. 08:20191788 %1008
1008
1002
SSO 2 (5)
O - SSW
4500Leicht bewölkt (120)Nebeldunst
Neuburg/Donau
387
So 25.07. 08:20161594 %1012
1012
966
Uml 1 (1)>= 10000Stark bewölkt (3000)
Leicht bewölkt (91)
Regen (schwach)
Niederstetten
473
So 25.07. 08:20181794 %1012
1011
957
S 2 (4)>= 10000Stark bewölkt (6700)
Wolkig (1200)
 
Nizza
10
So 25.07. 08:30261551 %1008
1008
1007
NNW 3 (9)>= 10000Nicht signifikant 
Nürnberg
312
So 25.07. 08:20191578 %1012
1011
975
SO 2 (5)>= 10000Leicht bewölkt (910) 
Oberpfaffenhofen
600
So 25.07. 08:20171694 %1012
1011
942
S 2 (4)
OSO - WSW
>= 10000Stark bewölkt (3000)
Stark bewölkt (2300)
 
Paderborn/Lippstadt
213
So 25.07. 08:20191578 %1009
1009
984
SSO 2 (5)>= 10000Nicht signifikant 
Rimini
13
So 25.07. 08:20281442 %1010
1010
1008
S 2 (5)>= 10000Nicht signifikant 
Saarbrücken/Ensheim
320
So 25.07. 08:201616100 %1011
1011
973
SSW 2 (5)
S - WSW
6000Stark bewölkt (150)
Leicht bewölkt (30)
 
Salzburg
450
So 25.07. 08:20191578 %1013
1012
960
Uml 1 (2)>= 10000Leicht bewölkt (910) 
Sion
481
So 25.07. 08:20201678 %1011
1010
955
W 2 (4)>= 10000Stark bewölkt (2100)
Leicht bewölkt (910)
 
Stuttgart
419
So 25.07. 08:20191788 %1012
1011
963
Uml 2 (3)>= 10000Stark bewölkt (670)
Leicht bewölkt (30)
 
Toulon
4
So 25.07. 08:30261861 %1007
1007
1007
NNW 2 (5)
Bald Übergang zu:
SO 3 (10)
>= 10000Nicht signifikant 
Triest
20
So 25.07. 07:55262070 %1010
1010
1008
Windstill>= 10000Nicht signifikant 
Turin
287
So 25.07. 08:20221878 %1010
1009
976
NNW 2 (4)>= 10000Stark bewölkt (1500)
Wolkig (730)
 
Venedig
6
So 25.07. 08:20251969 %1010
1010
1009
NO 3 (10)>= 10000Leicht bewölkt (430) 
Verona/Villafranca
68
So 25.07. 08:20261861 %1009
1009
1001
ONO 3 (9)
NO - O
>= 10000Nicht signifikant 
Westerland/Sylt
20
So 25.07. 08:20201888 %1007
1007
1005
O 4 (14)>= 10000Stark bewölkt (3000)
Stark bewölkt (2100)
Leicht bewölkt (1500)
 
Wien/Schwechat
190
So 25.07. 08:20211883 %1012
1012
989
SSW 2 (3)
SSO - WSW
>= 10000Leicht bewölkt (460) 
Zürich-Kloten
432
So 25.07. 08:20181794 %1011
1010
960
NO 2 (3)
N - O
7000Wolkig (150) 

Altimeter: Einstellung am Altimeter (Höhenmesser), die Höhe 0 muss auf diesen Luftdruckwert zeigen, damit das Gerät die Stationshöhe richtig anzeigt.

NN: Luftdruck reduziert auf "Normal Null", auf Meereshöhe, dieser von der Temperatur abhängige Wert wird bisweilen unkorrekt einfach als "Luftdruck" bezeichnet. Eigentlich nur eine fiktive Größe, die es erlaubt, Stationen auf unterschiedlichen Höhen miteinander zu vergleichen.

Station: Realer Luftdruck an der Station.